sensor_id;sensor_type;location;lat;lon;timestamp;P1;durP1;ratioP1;P2;durP2;ratioP2
68214;SDS011;55036;52.138;5.236;2023-07-13T00:00:28;8.13;;;2.78;;
68214;SDS011;55036;52.138;5.236;2023-07-13T00:02:56;11.05;;;2.90;;
68214;SDS011;55036;52.138;5.236;2023-07-13T00:05:23;10.70;;;2.35;;
68214;SDS011;55036;52.138;5.236;2023-07-13T00:07:50;9.80;;;2.72;;
68214;SDS011;55036;52.138;5.236;2023-07-13T00:10:18;15.07;;;2.75;;
68214;SDS011;55036;52.138;5.236;2023-07-13T00:12:44;12.10;;;2.58;;
68214;SDS011;55036;52.138;5.236;2023-07-13T00:15:13;8.38;;;2.10;;
68214;SDS011;55036;52.138;5.236;2023-07-13T00:17:43;17.02;;;3.00;;
68214;SDS011;55036;52.138;5.236;2023-07-13T00:20:13;12.57;;;2.33;;
68214;SDS011;55036;52.138;5.236;2023-07-13T00:22:40;9.40;;;2.33;;
68214;SDS011;55036;52.138;5.236;2023-07-13T00:25:09;13.73;;;2.97;;
68214;SDS011;55036;52.138;5.236;2023-07-13T00:27:37;11.43;;;3.17;;
68214;SDS011;55036;52.138;5.236;2023-07-13T00:30:04;8.07;;;1.95;;
68214;SDS011;55036;52.138;5.236;2023-07-13T00:32:32;6.65;;;1.65;;
68214;SDS011;55036;52.138;5.236;2023-07-13T00:34:59;11.65;;;2.67;;
68214;SDS011;55036;52.138;5.236;2023-07-13T00:37:26;7.75;;;1.98;;
68214;SDS011;55036;52.138;5.236;2023-07-13T00:39:53;9.70;;;2.47;;
68214;SDS011;55036;52.138;5.236;2023-07-13T01:21:13;6.93;;;2.00;;
68214;SDS011;55036;52.138;5.236;2023-07-13T01:23:40;11.35;;;2.88;;
68214;SDS011;55036;52.138;5.236;2023-07-13T01:26:07;8.25;;;1.95;;
68214;SDS011;55036;52.138;5.236;2023-07-13T01:28:34;8.45;;;2.03;;
68214;SDS011;55036;52.138;5.236;2023-07-13T01:31:03;10.50;;;2.10;;
68214;SDS011;55036;52.138;5.236;2023-07-13T01:33:30;6.28;;;2.03;;
68214;SDS011;55036;52.138;5.236;2023-07-13T01:35:56;6.57;;;2.13;;
68214;SDS011;55036;52.138;5.236;2023-07-13T01:38:24;9.48;;;2.45;;
68214;SDS011;55036;52.138;5.236;2023-07-13T01:40:51;4.95;;;1.65;;
68214;SDS011;55036;52.138;5.236;2023-07-13T01:43:19;6.28;;;1.85;;
68214;SDS011;55036;52.138;5.236;2023-07-13T01:45:46;7.90;;;2.10;;
68214;SDS011;55036;52.138;5.236;2023-07-13T01:48:13;8.48;;;2.03;;
68214;SDS011;55036;52.138;5.236;2023-07-13T01:50:40;12.10;;;3.45;;
68214;SDS011;55036;52.138;5.236;2023-07-13T01:53:07;10.02;;;1.92;;
68214;SDS011;55036;52.138;5.236;2023-07-13T01:55:34;9.60;;;2.83;;
68214;SDS011;55036;52.138;5.236;2023-07-13T01:58:02;9.30;;;2.30;;
68214;SDS011;55036;52.138;5.236;2023-07-13T02:00:29;10.65;;;2.40;;
68214;SDS011;55036;52.138;5.236;2023-07-13T02:02:57;10.68;;;2.20;;
68214;SDS011;55036;52.138;5.236;2023-07-13T02:05:24;6.50;;;2.10;;
68214;SDS011;55036;52.138;5.236;2023-07-13T02:07:50;7.75;;;2.10;;
68214;SDS011;55036;52.138;5.236;2023-07-13T02:10:19;8.02;;;1.88;;
68214;SDS011;55036;52.138;5.236;2023-07-13T02:12:48;8.48;;;1.95;;
68214;SDS011;55036;52.138;5.236;2023-07-13T02:15:15;11.25;;;2.30;;
68214;SDS011;55036;52.138;5.236;2023-07-13T02:17:43;14.18;;;3.67;;
68214;SDS011;55036;52.138;5.236;2023-07-13T02:20:10;7.18;;;2.05;;
68214;SDS011;55036;52.138;5.236;2023-07-13T02:22:37;10.88;;;2.25;;
68214;SDS011;55036;52.138;5.236;2023-07-13T02:25:04;13.25;;;2.67;;
68214;SDS011;55036;52.138;5.236;2023-07-13T02:27:31;10.63;;;2.70;;
68214;SDS011;55036;52.138;5.236;2023-07-13T02:29:58;9.63;;;2.13;;
68214;SDS011;55036;52.138;5.236;2023-07-13T02:32:24;8.65;;;2.30;;
68214;SDS011;55036;52.138;5.236;2023-07-13T02:34:52;8.98;;;2.50;;
68214;SDS011;55036;52.138;5.236;2023-07-13T02:37:19;8.93;;;2.15;;
68214;SDS011;55036;52.138;5.236;2023-07-13T02:39:47;7.65;;;2.35;;
68214;SDS011;55036;52.138;5.236;2023-07-13T02:42:14;8.10;;;2.33;;
68214;SDS011;55036;52.138;5.236;2023-07-13T02:44:41;8.48;;;2.47;;
68214;SDS011;55036;52.138;5.236;2023-07-13T02:47:08;12.20;;;2.40;;
68214;SDS011;55036;52.138;5.236;2023-07-13T02:49:35;8.60;;;2.67;;
68214;SDS011;55036;52.138;5.236;2023-07-13T02:52:03;9.70;;;2.60;;
68214;SDS011;55036;52.138;5.236;2023-07-13T02:54:30;9.98;;;2.53;;
68214;SDS011;55036;52.138;5.236;2023-07-13T02:56:57;11.80;;;2.40;;
68214;SDS011;55036;52.138;5.236;2023-07-13T02:59:24;9.60;;;2.65;;
68214;SDS011;55036;52.138;5.236;2023-07-13T03:01:50;12.18;;;2.88;;
68214;SDS011;55036;52.138;5.236;2023-07-13T03:04:18;9.85;;;2.80;;
68214;SDS011;55036;52.138;5.236;2023-07-13T03:06:46;11.13;;;2.42;;
68214;SDS011;55036;52.138;5.236;2023-07-13T03:09:13;8.25;;;2.22;;
68214;SDS011;55036;52.138;5.236;2023-07-13T03:11:40;13.43;;;3.10;;
68214;SDS011;55036;52.138;5.236;2023-07-13T03:14:07;9.27;;;2.45;;
68214;SDS011;55036;52.138;5.236;2023-07-13T03:16:35;13.00;;;3.40;;
68214;SDS011;55036;52.138;5.236;2023-07-13T03:19:02;12.05;;;3.08;;
68214;SDS011;55036;52.138;5.236;2023-07-13T03:21:29;12.15;;;2.42;;
68214;SDS011;55036;52.138;5.236;2023-07-13T03:23:56;11.63;;;2.55;;
68214;SDS011;55036;52.138;5.236;2023-07-13T03:26:23;9.18;;;2.95;;
68214;SDS011;55036;52.138;5.236;2023-07-13T03:28:50;7.80;;;2.55;;
68214;SDS011;55036;52.138;5.236;2023-07-13T03:31:23;12.45;;;2.53;;
68214;SDS011;55036;52.138;5.236;2023-07-13T03:33:55;11.77;;;2.70;;
68214;SDS011;55036;52.138;5.236;2023-07-13T03:36:26;15.23;;;2.83;;
68214;SDS011;55036;52.138;5.236;2023-07-13T03:38:56;6.22;;;2.17;;
68214;SDS011;55036;52.138;5.236;2023-07-13T03:41:25;8.70;;;2.75;;
68214;SDS011;55036;52.138;5.236;2023-07-13T03:43:52;10.23;;;2.20;;
68214;SDS011;55036;52.138;5.236;2023-07-13T03:46:20;11.00;;;2.80;;
68214;SDS011;55036;52.138;5.236;2023-07-13T03:48:47;13.13;;;2.58;;
68214;SDS011;55036;52.138;5.236;2023-07-13T03:51:15;10.40;;;2.63;;
68214;SDS011;55036;52.138;5.236;2023-07-13T03:53:43;10.35;;;2.38;;
68214;SDS011;55036;52.138;5.236;2023-07-13T03:56:12;8.82;;;2.40;;
68214;SDS011;55036;52.138;5.236;2023-07-13T03:58:41;7.18;;;1.95;;
68214;SDS011;55036;52.138;5.236;2023-07-13T04:01:10;10.70;;;2.13;;
68214;SDS011;55036;52.138;5.236;2023-07-13T04:03:38;9.93;;;2.60;;
68214;SDS011;55036;52.138;5.236;2023-07-13T04:06:06;10.32;;;2.75;;
68214;SDS011;55036;52.138;5.236;2023-07-13T04:08:35;9.52;;;2.50;;
68214;SDS011;55036;52.138;5.236;2023-07-13T04:11:03;12.63;;;2.97;;
68214;SDS011;55036;52.138;5.236;2023-07-13T04:13:31;13.23;;;2.85;;
68214;SDS011;55036;52.138;5.236;2023-07-13T04:15:58;10.82;;;2.90;;
68214;SDS011;55036;52.138;5.236;2023-07-13T04:18:25;9.57;;;3.25;;
68214;SDS011;55036;52.138;5.236;2023-07-13T04:20:51;13.55;;;3.03;;
68214;SDS011;55036;52.138;5.236;2023-07-13T04:23:18;16.30;;;3.92;;
68214;SDS011;55036;52.138;5.236;2023-07-13T04:25:46;10.23;;;2.88;;
68214;SDS011;55036;52.138;5.236;2023-07-13T04:28:16;16.48;;;3.42;;
68214;SDS011;55036;52.138;5.236;2023-07-13T04:30:44;8.80;;;3.20;;
68214;SDS011;55036;52.138;5.236;2023-07-13T04:33:11;13.25;;;3.28;;
68214;SDS011;55036;52.138;5.236;2023-07-13T04:35:38;13.75;;;4.53;;
68214;SDS011;55036;52.138;5.236;2023-07-13T04:38:04;14.07;;;3.88;;
68214;SDS011;55036;52.138;5.236;2023-07-13T04:40:32;10.90;;;3.33;;
68214;SDS011;55036;52.138;5.236;2023-07-13T04:42:59;21.35;;;3.80;;
68214;SDS011;55036;52.138;5.236;2023-07-13T04:45:26;15.70;;;3.40;;
68214;SDS011;55036;52.138;5.236;2023-07-13T04:47:52;15.25;;;3.80;;
68214;SDS011;55036;52.138;5.236;2023-07-13T04:50:19;12.90;;;3.92;;
68214;SDS011;55036;52.138;5.236;2023-07-13T04:52:52;17.23;;;3.95;;
68214;SDS011;55036;52.138;5.236;2023-07-13T04:55:19;13.25;;;3.90;;
68214;SDS011;55036;52.138;5.236;2023-07-13T04:57:47;15.45;;;3.63;;
68214;SDS011;55036;52.138;5.236;2023-07-13T05:00:14;16.45;;;4.35;;
68214;SDS011;55036;52.138;5.236;2023-07-13T05:02:44;15.43;;;3.70;;
68214;SDS011;55036;52.138;5.236;2023-07-13T05:05:12;16.10;;;4.15;;
68214;SDS011;55036;52.138;5.236;2023-07-13T05:07:39;15.55;;;3.97;;
68214;SDS011;55036;52.138;5.236;2023-07-13T05:10:06;17.10;;;4.50;;
68214;SDS011;55036;52.138;5.236;2023-07-13T05:12:33;19.45;;;4.35;;
68214;SDS011;55036;52.138;5.236;2023-07-13T05:15:01;15.88;;;4.28;;
68214;SDS011;55036;52.138;5.236;2023-07-13T05:17:29;15.88;;;4.10;;
68214;SDS011;55036;52.138;5.236;2023-07-13T05:19:56;11.43;;;3.97;;
68214;SDS011;55036;52.138;5.236;2023-07-13T05:22:22;15.10;;;3.97;;
68214;SDS011;55036;52.138;5.236;2023-07-13T05:24:49;14.25;;;4.20;;
68214;SDS011;55036;52.138;5.236;2023-07-13T05:27:16;17.55;;;4.65;;
68214;SDS011;55036;52.138;5.236;2023-07-13T05:29:43;16.38;;;4.70;;
68214;SDS011;55036;52.138;5.236;2023-07-13T05:32:10;13.02;;;4.15;;
68214;SDS011;55036;52.138;5.236;2023-07-13T05:34:37;15.75;;;4.65;;
68214;SDS011;55036;52.138;5.236;2023-07-13T05:37:04;18.80;;;4.10;;
68214;SDS011;55036;52.138;5.236;2023-07-13T05:39:31;20.48;;;5.20;;
68214;SDS011;55036;52.138;5.236;2023-07-13T05:41:58;14.95;;;4.78;;
68214;SDS011;55036;52.138;5.236;2023-07-13T05:44:25;14.43;;;4.72;;
68214;SDS011;55036;52.138;5.236;2023-07-13T05:46:52;12.32;;;4.07;;
68214;SDS011;55036;52.138;5.236;2023-07-13T05:49:18;16.55;;;4.57;;
68214;SDS011;55036;52.138;5.236;2023-07-13T05:51:45;14.60;;;4.90;;
68214;SDS011;55036;52.138;5.236;2023-07-13T05:54:12;15.55;;;4.40;;
68214;SDS011;55036;52.138;5.236;2023-07-13T05:56:39;22.98;;;4.70;;
68214;SDS011;55036;52.138;5.236;2023-07-13T05:59:06;16.50;;;5.03;;
68214;SDS011;55036;52.138;5.236;2023-07-13T06:01:33;18.38;;;4.65;;
68214;SDS011;55036;52.138;5.236;2023-07-13T06:04:00;19.33;;;5.38;;
68214;SDS011;55036;52.138;5.236;2023-07-13T06:06:27;14.23;;;4.30;;
68214;SDS011;55036;52.138;5.236;2023-07-13T06:08:54;15.25;;;5.30;;
68214;SDS011;55036;52.138;5.236;2023-07-13T06:11:22;12.05;;;4.20;;
68214;SDS011;55036;52.138;5.236;2023-07-13T06:13:51;18.15;;;4.13;;
68214;SDS011;55036;52.138;5.236;2023-07-13T06:16:18;15.80;;;4.22;;
68214;SDS011;55036;52.138;5.236;2023-07-13T06:18:45;11.77;;;4.07;;
68214;SDS011;55036;52.138;5.236;2023-07-13T06:21:16;14.57;;;4.03;;
68214;SDS011;55036;52.138;5.236;2023-07-13T06:23:45;10.75;;;3.80;;
68214;SDS011;55036;52.138;5.236;2023-07-13T06:26:17;15.45;;;4.90;;
68214;SDS011;55036;52.138;5.236;2023-07-13T06:28:45;12.30;;;4.22;;
68214;SDS011;55036;52.138;5.236;2023-07-13T06:31:12;15.88;;;4.95;;
68214;SDS011;55036;52.138;5.236;2023-07-13T06:33:41;14.82;;;4.95;;
68214;SDS011;55036;52.138;5.236;2023-07-13T06:36:08;16.20;;;5.13;;
68214;SDS011;55036;52.138;5.236;2023-07-13T06:38:35;11.38;;;4.10;;
68214;SDS011;55036;52.138;5.236;2023-07-13T06:41:03;14.15;;;4.25;;
68214;SDS011;55036;52.138;5.236;2023-07-13T06:43:30;13.93;;;5.40;;
68214;SDS011;55036;52.138;5.236;2023-07-13T06:45:58;12.10;;;3.97;;
68214;SDS011;55036;52.138;5.236;2023-07-13T06:48:25;11.68;;;4.88;;
68214;SDS011;55036;52.138;5.236;2023-07-13T06:50:52;17.48;;;5.45;;
68214;SDS011;55036;52.138;5.236;2023-07-13T06:53:20;16.13;;;5.72;;
68214;SDS011;55036;52.138;5.236;2023-07-13T06:55:48;13.32;;;5.38;;
68214;SDS011;55036;52.138;5.236;2023-07-13T06:58:16;13.43;;;4.78;;
68214;SDS011;55036;52.138;5.236;2023-07-13T07:00:44;16.50;;;5.75;;
68214;SDS011;55036;52.138;5.236;2023-07-13T07:03:11;13.98;;;6.13;;
68214;SDS011;55036;52.138;5.236;2023-07-13T07:05:38;13.57;;;6.15;;
68214;SDS011;55036;52.138;5.236;2023-07-13T07:08:05;12.32;;;5.45;;
68214;SDS011;55036;52.138;5.236;2023-07-13T07:10:32;12.93;;;5.30;;
68214;SDS011;55036;52.138;5.236;2023-07-13T07:13:01;19.00;;;6.72;;
68214;SDS011;55036;52.138;5.236;2023-07-13T07:15:28;17.15;;;6.25;;
68214;SDS011;55036;52.138;5.236;2023-07-13T07:17:55;16.17;;;5.97;;
68214;SDS011;55036;52.138;5.236;2023-07-13T07:20:22;14.77;;;7.05;;
68214;SDS011;55036;52.138;5.236;2023-07-13T07:22:49;13.10;;;4.82;;
68214;SDS011;55036;52.138;5.236;2023-07-13T07:25:16;13.32;;;5.05;;
68214;SDS011;55036;52.138;5.236;2023-07-13T07:27:43;11.82;;;4.47;;
68214;SDS011;55036;52.138;5.236;2023-07-13T07:30:12;14.05;;;4.35;;
68214;SDS011;55036;52.138;5.236;2023-07-13T07:32:42;11.02;;;4.70;;
68214;SDS011;55036;52.138;5.236;2023-07-13T07:35:12;12.63;;;4.10;;
68214;SDS011;55036;52.138;5.236;2023-07-13T07:37:39;14.98;;;5.25;;
68214;SDS011;55036;52.138;5.236;2023-07-13T07:40:09;12.25;;;3.97;;
68214;SDS011;55036;52.138;5.236;2023-07-13T07:42:38;12.15;;;5.95;;
68214;SDS011;55036;52.138;5.236;2023-07-13T07:45:05;21.10;;;7.72;;
68214;SDS011;55036;52.138;5.236;2023-07-13T07:47:33;16.35;;;6.85;;
68214;SDS011;55036;52.138;5.236;2023-07-13T07:50:00;16.65;;;7.30;;
68214;SDS011;55036;52.138;5.236;2023-07-13T07:52:27;10.63;;;6.50;;
68214;SDS011;55036;52.138;5.236;2023-07-13T07:54:53;17.00;;;7.38;;
68214;SDS011;55036;52.138;5.236;2023-07-13T07:57:23;16.77;;;6.45;;
68214;SDS011;55036;52.138;5.236;2023-07-13T07:59:53;17.17;;;7.00;;
68214;SDS011;55036;52.138;5.236;2023-07-13T08:02:24;17.50;;;6.95;;
68214;SDS011;55036;52.138;5.236;2023-07-13T08:04:54;14.35;;;6.88;;
68214;SDS011;55036;52.138;5.236;2023-07-13T08:07:24;14.20;;;6.68;;
68214;SDS011;55036;52.138;5.236;2023-07-13T08:09:54;14.68;;;5.97;;
68214;SDS011;55036;52.138;5.236;2023-07-13T08:12:21;17.98;;;5.95;;
68214;SDS011;55036;52.138;5.236;2023-07-13T08:14:50;12.55;;;6.43;;
68214;SDS011;55036;52.138;5.236;2023-07-13T08:17:20;17.42;;;5.78;;
68214;SDS011;55036;52.138;5.236;2023-07-13T08:19:47;14.35;;;5.78;;
68214;SDS011;55036;52.138;5.236;2023-07-13T08:22:13;15.35;;;5.88;;
68214;SDS011;55036;52.138;5.236;2023-07-13T08:24:41;12.95;;;5.20;;
68214;SDS011;55036;52.138;5.236;2023-07-13T08:27:11;11.40;;;5.15;;
68214;SDS011;55036;52.138;5.236;2023-07-13T08:29:38;19.48;;;6.70;;
68214;SDS011;55036;52.138;5.236;2023-07-13T08:32:06;12.27;;;4.80;;
68214;SDS011;55036;52.138;5.236;2023-07-13T08:37:04;12.55;;;3.72;;
68214;SDS011;55036;52.138;5.236;2023-07-13T08:39:31;6.57;;;3.15;;
68214;SDS011;55036;52.138;5.236;2023-07-13T08:42:03;8.95;;;3.05;;
68214;SDS011;55036;52.138;5.236;2023-07-13T08:44:40;6.78;;;3.13;;
68214;SDS011;55036;52.138;5.236;2023-07-13T08:47:17;10.38;;;3.20;;
68214;SDS011;55036;52.138;5.236;2023-07-13T08:49:47;7.90;;;2.70;;
68214;SDS011;55036;52.138;5.236;2023-07-13T08:52:17;7.10;;;3.10;;
68214;SDS011;55036;52.138;5.236;2023-07-13T08:54:57;5.25;;;2.22;;
68214;SDS011;55036;52.138;5.236;2023-07-13T08:57:31;6.47;;;2.55;;
68214;SDS011;55036;52.138;5.236;2023-07-13T09:00:00;9.20;;;2.60;;
68214;SDS011;55036;52.138;5.236;2023-07-13T09:05:14;6.57;;;2.50;;
68214;SDS011;55036;52.138;5.236;2023-07-13T09:10:46;5.20;;;3.15;;
68214;SDS011;55036;52.138;5.236;2023-07-13T09:16:02;6.57;;;2.70;;
68214;SDS011;55036;52.138;5.236;2023-07-13T09:18:34;6.68;;;2.85;;
68214;SDS011;55036;52.138;5.236;2023-07-13T09:21:13;5.38;;;3.00;;
68214;SDS011;55036;52.138;5.236;2023-07-13T09:23:53;6.00;;;2.78;;
68214;SDS011;55036;52.138;5.236;2023-07-13T09:26:23;6.57;;;2.28;;
68214;SDS011;55036;52.138;5.236;2023-07-13T09:28:51;7.00;;;3.17;;
68214;SDS011;55036;52.138;5.236;2023-07-13T09:31:24;9.65;;;2.97;;
68214;SDS011;55036;52.138;5.236;2023-07-13T09:34:00;8.07;;;3.53;;
68214;SDS011;55036;52.138;5.236;2023-07-13T09:36:28;6.20;;;2.60;;
68214;SDS011;55036;52.138;5.236;2023-07-13T09:44:18;10.25;;;2.85;;
68214;SDS011;55036;52.138;5.236;2023-07-13T09:47:17;5.90;;;1.95;;
68214;SDS011;55036;52.138;5.236;2023-07-13T09:49:47;6.90;;;2.20;;
68214;SDS011;55036;52.138;5.236;2023-07-13T09:52:15;4.78;;;2.42;;
68214;SDS011;55036;52.138;5.236;2023-07-13T09:54:45;6.05;;;2.55;;
68214;SDS011;55036;52.138;5.236;2023-07-13T09:57:16;6.72;;;2.75;;
68214;SDS011;55036;52.138;5.236;2023-07-13T10:02:26;5.57;;;2.75;;
68214;SDS011;55036;52.138;5.236;2023-07-13T10:05:04;6.95;;;3.15;;
68214;SDS011;55036;52.138;5.236;2023-07-13T10:07:37;8.10;;;3.33;;
68214;SDS011;55036;52.138;5.236;2023-07-13T10:10:13;6.95;;;3.47;;
68214;SDS011;55036;52.138;5.236;2023-07-13T10:12:46;7.43;;;3.47;;
68214;SDS011;55036;52.138;5.236;2023-07-13T10:15:15;10.30;;;4.60;;
68214;SDS011;55036;52.138;5.236;2023-07-13T10:17:50;6.28;;;3.45;;
68214;SDS011;55036;52.138;5.236;2023-07-13T10:20:18;8.18;;;4.00;;
68214;SDS011;55036;52.138;5.236;2023-07-13T10:22:51;7.03;;;4.18;;
68214;SDS011;55036;52.138;5.236;2023-07-13T10:25:27;15.68;;;4.28;;
68214;SDS011;55036;52.138;5.236;2023-07-13T10:28:14;8.60;;;3.97;;
68214;SDS011;55036;52.138;5.236;2023-07-13T10:30:52;7.22;;;3.88;;
68214;SDS011;55036;52.138;5.236;2023-07-13T10:33:21;9.30;;;4.25;;
68214;SDS011;55036;52.138;5.236;2023-07-13T10:35:49;8.57;;;4.22;;
68214;SDS011;55036;52.138;5.236;2023-07-13T10:38:21;8.20;;;4.65;;
68214;SDS011;55036;52.138;5.236;2023-07-13T10:41:03;8.30;;;4.28;;
68214;SDS011;55036;52.138;5.236;2023-07-13T10:43:36;9.63;;;4.30;;
68214;SDS011;55036;52.138;5.236;2023-07-13T10:46:10;8.35;;;3.30;;
68214;SDS011;55036;52.138;5.236;2023-07-13T10:48:40;12.05;;;4.00;;
68214;SDS011;55036;52.138;5.236;2023-07-13T10:51:08;8.27;;;3.75;;
68214;SDS011;55036;52.138;5.236;2023-07-13T10:53:37;8.80;;;3.45;;
68214;SDS011;55036;52.138;5.236;2023-07-13T11:01:40;8.18;;;3.03;;
68214;SDS011;55036;52.138;5.236;2023-07-13T11:04:24;7.70;;;3.20;;
68214;SDS011;55036;52.138;5.236;2023-07-13T11:06:56;7.20;;;3.40;;
68214;SDS011;55036;52.138;5.236;2023-07-13T11:09:36;9.60;;;3.33;;
68214;SDS011;55036;52.138;5.236;2023-07-13T11:15:10;6.95;;;3.63;;
68214;SDS011;55036;52.138;5.236;2023-07-13T11:17:59;4.80;;;2.97;;
68214;SDS011;55036;52.138;5.236;2023-07-13T11:20:32;6.97;;;3.00;;
68214;SDS011;55036;52.138;5.236;2023-07-13T11:25:42;10.13;;;3.07;;
68214;SDS011;55036;52.138;5.236;2023-07-13T11:30:38;7.97;;;2.30;;
68214;SDS011;55036;52.138;5.236;2023-07-13T11:35:45;9.57;;;2.67;;
68214;SDS011;55036;52.138;5.236;2023-07-13T11:38:21;6.35;;;2.83;;
68214;SDS011;55036;52.138;5.236;2023-07-13T11:40:51;6.57;;;2.70;;
68214;SDS011;55036;52.138;5.236;2023-07-13T11:43:21;8.45;;;3.20;;
68214;SDS011;55036;52.138;5.236;2023-07-13T11:45:50;8.90;;;2.67;;
68214;SDS011;55036;52.138;5.236;2023-07-13T11:48:26;5.88;;;2.63;;
68214;SDS011;55036;52.138;5.236;2023-07-13T11:51:04;6.43;;;3.50;;
68214;SDS011;55036;52.138;5.236;2023-07-13T11:53:38;7.53;;;3.58;;
68214;SDS011;55036;52.138;5.236;2023-07-13T11:56:11;7.03;;;3.45;;
68214;SDS011;55036;52.138;5.236;2023-07-13T11:58:39;7.20;;;3.03;;
68214;SDS011;55036;52.138;5.236;2023-07-13T12:01:14;7.75;;;3.00;;
68214;SDS011;55036;52.138;5.236;2023-07-13T12:04:03;7.40;;;2.85;;
68214;SDS011;55036;52.138;5.236;2023-07-13T12:06:31;6.28;;;3.03;;
68214;SDS011;55036;52.138;5.236;2023-07-13T12:09:00;6.20;;;3.22;;
68214;SDS011;55036;52.138;5.236;2023-07-13T12:11:30;10.35;;;3.50;;
68214;SDS011;55036;52.138;5.236;2023-07-13T12:14:01;6.72;;;3.13;;
68214;SDS011;55036;52.138;5.236;2023-07-13T12:16:31;10.13;;;2.97;;
68214;SDS011;55036;52.138;5.236;2023-07-13T12:19:01;7.55;;;2.60;;
68214;SDS011;55036;52.138;5.236;2023-07-13T12:21:30;7.60;;;2.90;;
68214;SDS011;55036;52.138;5.236;2023-07-13T12:24:04;6.15;;;2.88;;
68214;SDS011;55036;52.138;5.236;2023-07-13T12:26:39;5.35;;;2.30;;
68214;SDS011;55036;52.138;5.236;2023-07-13T12:29:06;9.45;;;2.58;;
68214;SDS011;55036;52.138;5.236;2023-07-13T12:31:40;6.32;;;2.78;;
68214;SDS011;55036;52.138;5.236;2023-07-13T12:34:11;6.43;;;2.80;;
68214;SDS011;55036;52.138;5.236;2023-07-13T12:36:47;6.43;;;2.63;;
68214;SDS011;55036;52.138;5.236;2023-07-13T12:39:32;6.57;;;2.50;;
68214;SDS011;55036;52.138;5.236;2023-07-13T12:42:17;6.93;;;2.58;;
68214;SDS011;55036;52.138;5.236;2023-07-13T12:44:51;8.55;;;2.75;;
68214;SDS011;55036;52.138;5.236;2023-07-13T12:47:40;6.38;;;2.60;;
68214;SDS011;55036;52.138;5.236;2023-07-13T12:50:14;6.65;;;3.17;;
68214;SDS011;55036;52.138;5.236;2023-07-13T12:52:43;10.75;;;3.47;;
68214;SDS011;55036;52.138;5.236;2023-07-13T12:55:12;3.83;;;2.22;;
68214;SDS011;55036;52.138;5.236;2023-07-13T12:57:41;6.25;;;2.42;;
68214;SDS011;55036;52.138;5.236;2023-07-13T13:00:35;8.20;;;3.15;;
68214;SDS011;55036;52.138;5.236;2023-07-13T13:03:05;10.00;;;3.13;;
68214;SDS011;55036;52.138;5.236;2023-07-13T13:05:57;6.15;;;2.25;;
68214;SDS011;55036;52.138;5.236;2023-07-13T13:08:26;6.05;;;2.45;;
68214;SDS011;55036;52.138;5.236;2023-07-13T13:10:53;7.70;;;2.50;;
68214;SDS011;55036;52.138;5.236;2023-07-13T13:13:20;4.80;;;2.42;;
68214;SDS011;55036;52.138;5.236;2023-07-13T13:15:47;6.35;;;2.25;;
68214;SDS011;55036;52.138;5.236;2023-07-13T13:18:18;5.57;;;2.83;;
68214;SDS011;55036;52.138;5.236;2023-07-13T13:20:50;6.63;;;2.70;;
68214;SDS011;55036;52.138;5.236;2023-07-13T13:23:19;5.97;;;2.40;;
68214;SDS011;55036;52.138;5.236;2023-07-13T13:25:47;6.68;;;2.85;;
68214;SDS011;55036;52.138;5.236;2023-07-13T13:28:16;4.75;;;1.90;;
68214;SDS011;55036;52.138;5.236;2023-07-13T13:30:45;7.03;;;3.35;;
68214;SDS011;55036;52.138;5.236;2023-07-13T13:33:15;6.97;;;2.78;;
68214;SDS011;55036;52.138;5.236;2023-07-13T13:35:43;6.38;;;2.60;;
68214;SDS011;55036;52.138;5.236;2023-07-13T13:38:11;5.03;;;2.45;;
68214;SDS011;55036;52.138;5.236;2023-07-13T13:40:43;4.13;;;2.45;;
68214;SDS011;55036;52.138;5.236;2023-07-13T13:45:42;6.00;;;2.75;;
68214;SDS011;55036;52.138;5.236;2023-07-13T13:48:15;5.75;;;3.00;;
68214;SDS011;55036;52.138;5.236;2023-07-13T13:50:45;5.40;;;2.95;;
68214;SDS011;55036;52.138;5.236;2023-07-13T13:53:12;5.32;;;2.83;;
68214;SDS011;55036;52.138;5.236;2023-07-13T13:55:40;6.15;;;2.67;;
68214;SDS011;55036;52.138;5.236;2023-07-13T13:58:08;6.40;;;2.53;;
68214;SDS011;55036;52.138;5.236;2023-07-13T14:00:37;5.63;;;2.30;;
68214;SDS011;55036;52.138;5.236;2023-07-13T14:03:10;6.55;;;2.47;;
68214;SDS011;55036;52.138;5.236;2023-07-13T14:05:42;5.45;;;2.55;;
68214;SDS011;55036;52.138;5.236;2023-07-13T14:08:15;7.40;;;3.00;;
68214;SDS011;55036;52.138;5.236;2023-07-13T14:10:48;3.67;;;2.38;;
68214;SDS011;55036;52.138;5.236;2023-07-13T14:13:18;6.78;;;2.25;;
68214;SDS011;55036;52.138;5.236;2023-07-13T14:15:59;3.75;;;2.22;;
68214;SDS011;55036;52.138;5.236;2023-07-13T14:18:26;6.38;;;2.20;;
68214;SDS011;55036;52.138;5.236;2023-07-13T14:20:53;7.20;;;2.80;;
68214;SDS011;55036;52.138;5.236;2023-07-13T14:23:20;5.50;;;2.60;;
68214;SDS011;55036;52.138;5.236;2023-07-13T14:25:47;7.57;;;2.50;;
68214;SDS011;55036;52.138;5.236;2023-07-13T14:28:18;7.20;;;2.05;;
68214;SDS011;55036;52.138;5.236;2023-07-13T14:30:45;9.15;;;2.40;;
68214;SDS011;55036;52.138;5.236;2023-07-13T14:33:13;5.72;;;2.50;;
68214;SDS011;55036;52.138;5.236;2023-07-13T14:35:40;3.75;;;2.40;;
68214;SDS011;55036;52.138;5.236;2023-07-13T14:38:12;9.90;;;2.75;;
68214;SDS011;55036;52.138;5.236;2023-07-13T14:40:42;5.05;;;2.17;;
68214;SDS011;55036;52.138;5.236;2023-07-13T14:43:10;4.80;;;2.08;;
68214;SDS011;55036;52.138;5.236;2023-07-13T14:45:39;5.82;;;2.10;;
68214;SDS011;55036;52.138;5.236;2023-07-13T14:48:26;6.78;;;2.05;;
68214;SDS011;55036;52.138;5.236;2023-07-13T14:50:58;5.45;;;2.63;;
68214;SDS011;55036;52.138;5.236;2023-07-13T14:53:26;5.78;;;2.60;;
68214;SDS011;55036;52.138;5.236;2023-07-13T14:55:56;5.57;;;2.00;;
68214;SDS011;55036;52.138;5.236;2023-07-13T14:58:22;5.85;;;2.60;;
68214;SDS011;55036;52.138;5.236;2023-07-13T15:00:49;9.23;;;2.30;;
68214;SDS011;55036;52.138;5.236;2023-07-13T15:03:21;6.10;;;2.20;;
68214;SDS011;55036;52.138;5.236;2023-07-13T15:05:51;5.75;;;2.50;;
68214;SDS011;55036;52.138;5.236;2023-07-13T15:08:19;6.10;;;2.65;;
68214;SDS011;55036;52.138;5.236;2023-07-13T15:10:46;4.93;;;2.15;;
68214;SDS011;55036;52.138;5.236;2023-07-13T15:13:19;5.63;;;2.47;;
68214;SDS011;55036;52.138;5.236;2023-07-13T15:15:48;4.55;;;2.10;;
68214;SDS011;55036;52.138;5.236;2023-07-13T15:18:18;5.07;;;1.98;;
68214;SDS011;55036;52.138;5.236;2023-07-13T15:23:16;2.88;;;1.60;;
68214;SDS011;55036;52.138;5.236;2023-07-13T15:25:44;3.45;;;1.80;;
68214;SDS011;55036;52.138;5.236;2023-07-13T15:28:12;6.35;;;2.00;;
68214;SDS011;55036;52.138;5.236;2023-07-13T15:30:43;4.97;;;2.22;;
68214;SDS011;55036;52.138;5.236;2023-07-13T15:33:13;4.63;;;1.73;;
68214;SDS011;55036;52.138;5.236;2023-07-13T15:35:48;3.60;;;2.10;;
68214;SDS011;55036;52.138;5.236;2023-07-13T15:38:19;3.85;;;1.63;;
68214;SDS011;55036;52.138;5.236;2023-07-13T15:40:48;6.00;;;2.08;;
68214;SDS011;55036;52.138;5.236;2023-07-13T15:43:19;5.57;;;1.90;;
68214;SDS011;55036;52.138;5.236;2023-07-13T15:45:47;3.13;;;1.70;;
68214;SDS011;55036;52.138;5.236;2023-07-13T15:48:20;2.90;;;1.60;;
68214;SDS011;55036;52.138;5.236;2023-07-13T15:53:24;6.43;;;1.85;;
68214;SDS011;55036;52.138;5.236;2023-07-13T15:55:54;4.10;;;1.70;;
68214;SDS011;55036;52.138;5.236;2023-07-13T15:58:21;3.90;;;1.60;;
68214;SDS011;55036;52.138;5.236;2023-07-13T16:00:48;3.70;;;1.77;;
68214;SDS011;55036;52.138;5.236;2023-07-13T16:03:20;5.80;;;1.65;;
68214;SDS011;55036;52.138;5.236;2023-07-13T16:05:47;2.90;;;1.58;;
68214;SDS011;55036;52.138;5.236;2023-07-13T16:08:26;3.55;;;1.90;;
68214;SDS011;55036;52.138;5.236;2023-07-13T16:10:56;4.73;;;1.60;;
68214;SDS011;55036;52.138;5.236;2023-07-13T16:13:25;4.70;;;1.98;;
68214;SDS011;55036;52.138;5.236;2023-07-13T16:15:53;4.90;;;1.90;;
68214;SDS011;55036;52.138;5.236;2023-07-13T16:18:23;2.60;;;1.80;;